sensor_id;sensor_type;location;lat;lon;timestamp;P1;durP1;ratioP1;P2;durP2;ratioP2
5730;SDS011;2890;51.950;7.668;2023-12-04T00:00:38;57.53;;;18.90;;
5730;SDS011;2890;51.950;7.668;2023-12-04T00:03:06;58.90;;;19.77;;
5730;SDS011;2890;51.950;7.668;2023-12-04T00:05:32;48.57;;;18.73;;
5730;SDS011;2890;51.950;7.668;2023-12-04T00:07:58;45.90;;;17.60;;
5730;SDS011;2890;51.950;7.668;2023-12-04T00:10:25;59.90;;;18.97;;
5730;SDS011;2890;51.950;7.668;2023-12-04T00:12:51;53.30;;;17.90;;
5730;SDS011;2890;51.950;7.668;2023-12-04T00:15:18;42.50;;;17.47;;
5730;SDS011;2890;51.950;7.668;2023-12-04T00:17:45;57.50;;;19.50;;
5730;SDS011;2890;51.950;7.668;2023-12-04T00:20:12;45.23;;;16.73;;
5730;SDS011;2890;51.950;7.668;2023-12-04T00:22:39;39.60;;;16.03;;
5730;SDS011;2890;51.950;7.668;2023-12-04T00:25:05;43.93;;;16.30;;
5730;SDS011;2890;51.950;7.668;2023-12-04T00:27:32;46.43;;;16.13;;
5730;SDS011;2890;51.950;7.668;2023-12-04T00:29:58;39.10;;;16.53;;
5730;SDS011;2890;51.950;7.668;2023-12-04T00:32:25;46.10;;;16.30;;
5730;SDS011;2890;51.950;7.668;2023-12-04T00:34:51;44.60;;;16.20;;
5730;SDS011;2890;51.950;7.668;2023-12-04T00:37:18;42.20;;;15.77;;
5730;SDS011;2890;51.950;7.668;2023-12-04T00:39:45;58.10;;;16.93;;
5730;SDS011;2890;51.950;7.668;2023-12-04T00:42:11;49.73;;;17.63;;
5730;SDS011;2890;51.950;7.668;2023-12-04T00:44:37;47.63;;;16.07;;
5730;SDS011;2890;51.950;7.668;2023-12-04T00:47:03;50.03;;;16.60;;
5730;SDS011;2890;51.950;7.668;2023-12-04T00:49:30;50.87;;;17.60;;
5730;SDS011;2890;51.950;7.668;2023-12-04T00:51:56;52.33;;;16.73;;
5730;SDS011;2890;51.950;7.668;2023-12-04T00:54:23;39.43;;;15.83;;
5730;SDS011;2890;51.950;7.668;2023-12-04T00:56:50;46.93;;;17.70;;
5730;SDS011;2890;51.950;7.668;2023-12-04T00:59:16;48.13;;;16.67;;
5730;SDS011;2890;51.950;7.668;2023-12-04T01:01:42;48.17;;;16.47;;
5730;SDS011;2890;51.950;7.668;2023-12-04T01:04:08;58.27;;;17.77;;
5730;SDS011;2890;51.950;7.668;2023-12-04T01:06:35;41.10;;;15.73;;
5730;SDS011;2890;51.950;7.668;2023-12-04T01:09:01;49.90;;;16.30;;
5730;SDS011;2890;51.950;7.668;2023-12-04T01:11:29;40.93;;;17.37;;
5730;SDS011;2890;51.950;7.668;2023-12-04T01:13:55;52.37;;;17.30;;
5730;SDS011;2890;51.950;7.668;2023-12-04T01:16:21;57.17;;;16.50;;
5730;SDS011;2890;51.950;7.668;2023-12-04T01:18:47;46.57;;;15.93;;
5730;SDS011;2890;51.950;7.668;2023-12-04T01:21:14;39.20;;;15.10;;
5730;SDS011;2890;51.950;7.668;2023-12-04T01:23:40;45.73;;;16.50;;
5730;SDS011;2890;51.950;7.668;2023-12-04T01:26:06;50.10;;;16.77;;
5730;SDS011;2890;51.950;7.668;2023-12-04T01:28:34;43.70;;;15.83;;
5730;SDS011;2890;51.950;7.668;2023-12-04T01:31:00;46.17;;;16.23;;
5730;SDS011;2890;51.950;7.668;2023-12-04T01:33:26;43.00;;;16.33;;
5730;SDS011;2890;51.950;7.668;2023-12-04T01:35:53;54.00;;;16.43;;
5730;SDS011;2890;51.950;7.668;2023-12-04T01:38:19;49.37;;;16.07;;
5730;SDS011;2890;51.950;7.668;2023-12-04T01:40:45;39.57;;;15.50;;
5730;SDS011;2890;51.950;7.668;2023-12-04T01:43:11;42.20;;;15.90;;
5730;SDS011;2890;51.950;7.668;2023-12-04T01:45:39;40.97;;;15.37;;
5730;SDS011;2890;51.950;7.668;2023-12-04T01:48:05;43.30;;;17.00;;
5730;SDS011;2890;51.950;7.668;2023-12-04T01:50:32;39.77;;;16.27;;
5730;SDS011;2890;51.950;7.668;2023-12-04T01:52:59;48.00;;;16.17;;
5730;SDS011;2890;51.950;7.668;2023-12-04T01:55:25;33.30;;;14.00;;
5730;SDS011;2890;51.950;7.668;2023-12-04T01:57:52;43.87;;;14.60;;
5730;SDS011;2890;51.950;7.668;2023-12-04T02:00:21;41.47;;;15.10;;
5730;SDS011;2890;51.950;7.668;2023-12-04T02:02:48;49.73;;;16.27;;
5730;SDS011;2890;51.950;7.668;2023-12-04T02:05:15;44.63;;;15.87;;
5730;SDS011;2890;51.950;7.668;2023-12-04T02:07:42;36.90;;;15.13;;
5730;SDS011;2890;51.950;7.668;2023-12-04T02:10:09;48.20;;;17.30;;
5730;SDS011;2890;51.950;7.668;2023-12-04T02:12:35;41.73;;;15.13;;
5730;SDS011;2890;51.950;7.668;2023-12-04T02:15:02;46.80;;;15.90;;
5730;SDS011;2890;51.950;7.668;2023-12-04T02:17:29;35.13;;;14.90;;
5730;SDS011;2890;51.950;7.668;2023-12-04T02:19:56;48.03;;;16.27;;
5730;SDS011;2890;51.950;7.668;2023-12-04T02:22:23;38.80;;;15.27;;
5730;SDS011;2890;51.950;7.668;2023-12-04T02:24:50;39.63;;;15.00;;
5730;SDS011;2890;51.950;7.668;2023-12-04T02:27:17;43.17;;;16.00;;
5730;SDS011;2890;51.950;7.668;2023-12-04T02:29:45;37.60;;;15.00;;
5730;SDS011;2890;51.950;7.668;2023-12-04T02:32:14;43.50;;;16.17;;
5730;SDS011;2890;51.950;7.668;2023-12-04T02:34:41;47.43;;;15.97;;
5730;SDS011;2890;51.950;7.668;2023-12-04T02:37:08;44.53;;;15.73;;
5730;SDS011;2890;51.950;7.668;2023-12-04T02:39:35;41.17;;;15.30;;
5730;SDS011;2890;51.950;7.668;2023-12-04T02:42:04;39.50;;;15.37;;
5730;SDS011;2890;51.950;7.668;2023-12-04T02:44:30;45.07;;;15.60;;
5730;SDS011;2890;51.950;7.668;2023-12-04T02:46:56;41.60;;;16.20;;
5730;SDS011;2890;51.950;7.668;2023-12-04T02:49:22;40.13;;;16.50;;
5730;SDS011;2890;51.950;7.668;2023-12-04T02:51:49;40.87;;;16.20;;
5730;SDS011;2890;51.950;7.668;2023-12-04T02:54:15;30.83;;;14.77;;
5730;SDS011;2890;51.950;7.668;2023-12-04T02:56:41;44.50;;;15.00;;
5730;SDS011;2890;51.950;7.668;2023-12-04T02:59:09;43.93;;;14.87;;
5730;SDS011;2890;51.950;7.668;2023-12-04T03:01:35;45.67;;;15.37;;
5730;SDS011;2890;51.950;7.668;2023-12-04T03:04:01;38.57;;;16.17;;
5730;SDS011;2890;51.950;7.668;2023-12-04T03:06:27;46.43;;;17.10;;
5730;SDS011;2890;51.950;7.668;2023-12-04T03:08:54;41.23;;;16.10;;
5730;SDS011;2890;51.950;7.668;2023-12-04T03:11:20;40.53;;;16.30;;
5730;SDS011;2890;51.950;7.668;2023-12-04T03:13:46;40.40;;;15.63;;
5730;SDS011;2890;51.950;7.668;2023-12-04T03:16:17;37.77;;;16.13;;
5730;SDS011;2890;51.950;7.668;2023-12-04T03:18:43;39.17;;;15.53;;
5730;SDS011;2890;51.950;7.668;2023-12-04T03:21:10;46.90;;;17.27;;
5730;SDS011;2890;51.950;7.668;2023-12-04T03:23:36;57.03;;;18.20;;
5730;SDS011;2890;51.950;7.668;2023-12-04T03:26:03;39.70;;;15.67;;
5730;SDS011;2890;51.950;7.668;2023-12-04T03:28:29;49.27;;;17.47;;
5730;SDS011;2890;51.950;7.668;2023-12-04T03:30:55;46.47;;;16.60;;
5730;SDS011;2890;51.950;7.668;2023-12-04T03:33:23;51.50;;;17.80;;
5730;SDS011;2890;51.950;7.668;2023-12-04T03:35:49;43.13;;;17.23;;
5730;SDS011;2890;51.950;7.668;2023-12-04T03:38:15;42.53;;;16.77;;
5730;SDS011;2890;51.950;7.668;2023-12-04T03:40:41;50.83;;;18.57;;
5730;SDS011;2890;51.950;7.668;2023-12-04T03:43:08;54.00;;;18.47;;
5730;SDS011;2890;51.950;7.668;2023-12-04T03:45:34;47.20;;;17.77;;
5730;SDS011;2890;51.950;7.668;2023-12-04T03:48:00;65.00;;;19.30;;
5730;SDS011;2890;51.950;7.668;2023-12-04T03:50:28;48.93;;;18.37;;
5730;SDS011;2890;51.950;7.668;2023-12-04T03:52:54;51.97;;;17.23;;
5730;SDS011;2890;51.950;7.668;2023-12-04T03:55:20;47.67;;;16.60;;
5730;SDS011;2890;51.950;7.668;2023-12-04T03:57:46;50.70;;;17.40;;
5730;SDS011;2890;51.950;7.668;2023-12-04T04:00:13;68.90;;;18.17;;
5730;SDS011;2890;51.950;7.668;2023-12-04T04:02:39;43.23;;;17.80;;
5730;SDS011;2890;51.950;7.668;2023-12-04T04:05:06;54.40;;;18.97;;
5730;SDS011;2890;51.950;7.668;2023-12-04T04:07:34;48.30;;;18.63;;
5730;SDS011;2890;51.950;7.668;2023-12-04T04:10:00;52.30;;;18.07;;
5730;SDS011;2890;51.950;7.668;2023-12-04T04:12:27;51.40;;;18.10;;
5730;SDS011;2890;51.950;7.668;2023-12-04T04:14:53;48.53;;;17.73;;
5730;SDS011;2890;51.950;7.668;2023-12-04T04:17:19;43.60;;;16.97;;
5730;SDS011;2890;51.950;7.668;2023-12-04T04:19:46;50.00;;;16.27;;
5730;SDS011;2890;51.950;7.668;2023-12-04T04:22:12;43.87;;;18.20;;
5730;SDS011;2890;51.950;7.668;2023-12-04T04:24:39;47.83;;;17.80;;
5730;SDS011;2890;51.950;7.668;2023-12-04T04:27:06;50.47;;;17.20;;
5730;SDS011;2890;51.950;7.668;2023-12-04T04:29:32;37.60;;;16.47;;
5730;SDS011;2890;51.950;7.668;2023-12-04T04:31:58;45.17;;;17.20;;
5730;SDS011;2890;51.950;7.668;2023-12-04T04:34:25;51.30;;;16.70;;
5730;SDS011;2890;51.950;7.668;2023-12-04T04:36:51;41.17;;;16.30;;
5730;SDS011;2890;51.950;7.668;2023-12-04T04:39:17;50.90;;;17.27;;
5730;SDS011;2890;51.950;7.668;2023-12-04T04:41:45;35.93;;;14.70;;
5730;SDS011;2890;51.950;7.668;2023-12-04T04:44:11;32.53;;;14.20;;
5730;SDS011;2890;51.950;7.668;2023-12-04T04:46:38;42.10;;;17.10;;
5730;SDS011;2890;51.950;7.668;2023-12-04T04:49:05;38.33;;;16.00;;
5730;SDS011;2890;51.950;7.668;2023-12-04T04:51:31;43.97;;;17.00;;
5730;SDS011;2890;51.950;7.668;2023-12-04T04:53:58;40.90;;;16.40;;
5730;SDS011;2890;51.950;7.668;2023-12-04T04:56:24;35.67;;;13.87;;
5730;SDS011;2890;51.950;7.668;2023-12-04T04:58:52;35.70;;;14.87;;
5730;SDS011;2890;51.950;7.668;2023-12-04T05:01:18;43.20;;;16.17;;
5730;SDS011;2890;51.950;7.668;2023-12-04T05:03:44;36.57;;;15.53;;
5730;SDS011;2890;51.950;7.668;2023-12-04T05:06:10;40.87;;;15.90;;
5730;SDS011;2890;51.950;7.668;2023-12-04T05:08:37;37.60;;;15.43;;
5730;SDS011;2890;51.950;7.668;2023-12-04T05:11:03;39.47;;;15.77;;
5730;SDS011;2890;51.950;7.668;2023-12-04T05:13:30;35.87;;;15.70;;
5730;SDS011;2890;51.950;7.668;2023-12-04T05:15:57;40.27;;;15.40;;
5730;SDS011;2890;51.950;7.668;2023-12-04T05:18:23;37.97;;;15.40;;
5730;SDS011;2890;51.950;7.668;2023-12-04T05:20:50;32.87;;;15.43;;
5730;SDS011;2890;51.950;7.668;2023-12-04T05:23:16;29.70;;;14.50;;
5730;SDS011;2890;51.950;7.668;2023-12-04T05:25:42;30.07;;;13.40;;
5730;SDS011;2890;51.950;7.668;2023-12-04T05:28:09;33.83;;;15.37;;
5730;SDS011;2890;51.950;7.668;2023-12-04T05:30:35;30.93;;;14.90;;
5730;SDS011;2890;51.950;7.668;2023-12-04T05:33:02;28.67;;;14.83;;
5730;SDS011;2890;51.950;7.668;2023-12-04T05:35:29;31.57;;;14.43;;
5730;SDS011;2890;51.950;7.668;2023-12-04T05:37:58;30.97;;;14.87;;
5730;SDS011;2890;51.950;7.668;2023-12-04T05:40:25;27.90;;;14.50;;
5730;SDS011;2890;51.950;7.668;2023-12-04T05:42:51;29.13;;;13.93;;
5730;SDS011;2890;51.950;7.668;2023-12-04T05:45:17;34.40;;;14.30;;
5730;SDS011;2890;51.950;7.668;2023-12-04T05:47:43;32.13;;;14.93;;
5730;SDS011;2890;51.950;7.668;2023-12-04T05:50:11;28.10;;;13.50;;
5730;SDS011;2890;51.950;7.668;2023-12-04T05:52:37;29.50;;;13.80;;
5730;SDS011;2890;51.950;7.668;2023-12-04T05:55:04;34.63;;;14.00;;
5730;SDS011;2890;51.950;7.668;2023-12-04T05:57:30;32.63;;;14.37;;
5730;SDS011;2890;51.950;7.668;2023-12-04T05:59:56;31.40;;;14.40;;
5730;SDS011;2890;51.950;7.668;2023-12-04T06:02:23;29.37;;;14.20;;
5730;SDS011;2890;51.950;7.668;2023-12-04T06:04:49;39.00;;;15.47;;
5730;SDS011;2890;51.950;7.668;2023-12-04T06:07:17;31.33;;;14.37;;
5730;SDS011;2890;51.950;7.668;2023-12-04T06:09:43;30.73;;;13.20;;
5730;SDS011;2890;51.950;7.668;2023-12-04T06:12:09;33.07;;;14.60;;
5730;SDS011;2890;51.950;7.668;2023-12-04T06:14:35;31.00;;;13.63;;
5730;SDS011;2890;51.950;7.668;2023-12-04T06:17:02;30.60;;;13.93;;
5730;SDS011;2890;51.950;7.668;2023-12-04T06:19:28;35.03;;;14.60;;
5730;SDS011;2890;51.950;7.668;2023-12-04T06:21:55;33.97;;;13.97;;
5730;SDS011;2890;51.950;7.668;2023-12-04T06:24:23;25.53;;;13.80;;
5730;SDS011;2890;51.950;7.668;2023-12-04T06:26:50;30.07;;;14.73;;
5730;SDS011;2890;51.950;7.668;2023-12-04T06:29:16;33.03;;;14.60;;
5730;SDS011;2890;51.950;7.668;2023-12-04T06:31:43;28.67;;;13.97;;
5730;SDS011;2890;51.950;7.668;2023-12-04T06:34:09;25.20;;;13.10;;
5730;SDS011;2890;51.950;7.668;2023-12-04T06:36:37;28.23;;;13.40;;
5730;SDS011;2890;51.950;7.668;2023-12-04T06:39:04;29.93;;;13.67;;
5730;SDS011;2890;51.950;7.668;2023-12-04T06:41:34;30.07;;;13.77;;
5730;SDS011;2890;51.950;7.668;2023-12-04T06:44:01;22.87;;;12.73;;
5730;SDS011;2890;51.950;7.668;2023-12-04T06:46:28;32.07;;;14.07;;
5730;SDS011;2890;51.950;7.668;2023-12-04T06:48:56;23.20;;;12.83;;
5730;SDS011;2890;51.950;7.668;2023-12-04T06:51:23;28.03;;;13.37;;
5730;SDS011;2890;51.950;7.668;2023-12-04T06:53:49;24.00;;;13.53;;
5730;SDS011;2890;51.950;7.668;2023-12-04T06:56:16;24.97;;;13.93;;
5730;SDS011;2890;51.950;7.668;2023-12-04T06:58:43;21.73;;;12.90;;
5730;SDS011;2890;51.950;7.668;2023-12-04T07:01:09;26.70;;;13.77;;
5730;SDS011;2890;51.950;7.668;2023-12-04T07:03:36;26.60;;;12.80;;
5730;SDS011;2890;51.950;7.668;2023-12-04T07:06:03;24.23;;;12.73;;
5730;SDS011;2890;51.950;7.668;2023-12-04T07:08:29;26.50;;;13.63;;
5730;SDS011;2890;51.950;7.668;2023-12-04T07:10:56;24.40;;;13.00;;
5730;SDS011;2890;51.950;7.668;2023-12-04T07:13:22;30.97;;;13.33;;
5730;SDS011;2890;51.950;7.668;2023-12-04T07:15:50;26.53;;;13.17;;
5730;SDS011;2890;51.950;7.668;2023-12-04T07:18:18;24.30;;;12.50;;
5730;SDS011;2890;51.950;7.668;2023-12-04T07:20:47;21.33;;;12.60;;
5730;SDS011;2890;51.950;7.668;2023-12-04T07:23:13;16.77;;;10.93;;
5730;SDS011;2890;51.950;7.668;2023-12-04T07:25:40;22.10;;;11.10;;
5730;SDS011;2890;51.950;7.668;2023-12-04T07:28:06;22.90;;;12.10;;
5730;SDS011;2890;51.950;7.668;2023-12-04T07:30:33;21.13;;;11.90;;
5730;SDS011;2890;51.950;7.668;2023-12-04T07:33:00;25.37;;;13.13;;
5730;SDS011;2890;51.950;7.668;2023-12-04T07:35:27;21.03;;;12.57;;
5730;SDS011;2890;51.950;7.668;2023-12-04T07:37:53;18.67;;;10.80;;
5730;SDS011;2890;51.950;7.668;2023-12-04T07:40:19;27.20;;;13.20;;
5730;SDS011;2890;51.950;7.668;2023-12-04T07:42:47;26.40;;;11.53;;
5730;SDS011;2890;51.950;7.668;2023-12-04T07:45:14;24.37;;;11.90;;
5730;SDS011;2890;51.950;7.668;2023-12-04T07:47:40;25.53;;;12.53;;
5730;SDS011;2890;51.950;7.668;2023-12-04T07:50:08;26.30;;;12.03;;
5730;SDS011;2890;51.950;7.668;2023-12-04T07:52:35;26.53;;;12.23;;
5730;SDS011;2890;51.950;7.668;2023-12-04T07:55:01;22.70;;;11.70;;
5730;SDS011;2890;51.950;7.668;2023-12-04T07:57:27;25.47;;;12.40;;
5730;SDS011;2890;51.950;7.668;2023-12-04T07:59:54;20.23;;;12.37;;
5730;SDS011;2890;51.950;7.668;2023-12-04T08:02:20;23.10;;;12.70;;
5730;SDS011;2890;51.950;7.668;2023-12-04T08:04:46;18.10;;;11.83;;
5730;SDS011;2890;51.950;7.668;2023-12-04T08:07:14;18.60;;;11.70;;
5730;SDS011;2890;51.950;7.668;2023-12-04T08:09:40;19.90;;;12.40;;
5730;SDS011;2890;51.950;7.668;2023-12-04T08:12:07;23.10;;;13.07;;
5730;SDS011;2890;51.950;7.668;2023-12-04T08:14:37;19.80;;;12.50;;
5730;SDS011;2890;51.950;7.668;2023-12-04T08:17:03;20.10;;;12.30;;
5730;SDS011;2890;51.950;7.668;2023-12-04T08:19:30;24.23;;;13.23;;
5730;SDS011;2890;51.950;7.668;2023-12-04T08:21:56;21.93;;;13.47;;
5730;SDS011;2890;51.950;7.668;2023-12-04T08:24:24;23.30;;;11.80;;
5730;SDS011;2890;51.950;7.668;2023-12-04T08:26:51;19.83;;;12.23;;
5730;SDS011;2890;51.950;7.668;2023-12-04T08:29:17;23.37;;;12.80;;
5730;SDS011;2890;51.950;7.668;2023-12-04T08:31:43;56.47;;;14.27;;
5730;SDS011;2890;51.950;7.668;2023-12-04T08:34:09;20.60;;;12.60;;
5730;SDS011;2890;51.950;7.668;2023-12-04T08:36:36;19.43;;;11.40;;
5730;SDS011;2890;51.950;7.668;2023-12-04T08:39:02;23.50;;;13.40;;
5730;SDS011;2890;51.950;7.668;2023-12-04T08:41:30;17.43;;;11.80;;
5730;SDS011;2890;51.950;7.668;2023-12-04T08:43:56;21.30;;;11.63;;
5730;SDS011;2890;51.950;7.668;2023-12-04T08:46:23;24.07;;;12.10;;
5730;SDS011;2890;51.950;7.668;2023-12-04T08:48:49;20.20;;;11.43;;
5730;SDS011;2890;51.950;7.668;2023-12-04T08:51:16;16.20;;;11.50;;
5730;SDS011;2890;51.950;7.668;2023-12-04T08:53:42;16.83;;;11.23;;
5730;SDS011;2890;51.950;7.668;2023-12-04T08:56:09;15.57;;;11.40;;
5730;SDS011;2890;51.950;7.668;2023-12-04T08:58:37;18.27;;;11.30;;
5730;SDS011;2890;51.950;7.668;2023-12-04T09:01:03;16.10;;;10.40;;
5730;SDS011;2890;51.950;7.668;2023-12-04T09:03:30;16.57;;;11.30;;
5730;SDS011;2890;51.950;7.668;2023-12-04T09:05:56;17.37;;;10.90;;
5730;SDS011;2890;51.950;7.668;2023-12-04T09:08:22;15.50;;;10.90;;
5730;SDS011;2890;51.950;7.668;2023-12-04T09:10:50;17.90;;;12.23;;
5730;SDS011;2890;51.950;7.668;2023-12-04T09:13:17;14.90;;;11.10;;
5730;SDS011;2890;51.950;7.668;2023-12-04T09:15:44;16.13;;;11.10;;
5730;SDS011;2890;51.950;7.668;2023-12-04T09:18:13;17.50;;;11.67;;
5730;SDS011;2890;51.950;7.668;2023-12-04T09:20:40;14.70;;;10.57;;
5730;SDS011;2890;51.950;7.668;2023-12-04T09:23:07;18.77;;;11.50;;
5730;SDS011;2890;51.950;7.668;2023-12-04T09:25:34;17.93;;;11.60;;
5730;SDS011;2890;51.950;7.668;2023-12-04T09:28:01;16.10;;;11.30;;
5730;SDS011;2890;51.950;7.668;2023-12-04T09:30:27;15.10;;;10.67;;
5730;SDS011;2890;51.950;7.668;2023-12-04T09:32:55;15.53;;;11.63;;
5730;SDS011;2890;51.950;7.668;2023-12-04T09:35:21;15.87;;;11.30;;
5730;SDS011;2890;51.950;7.668;2023-12-04T09:37:47;14.53;;;10.37;;
5730;SDS011;2890;51.950;7.668;2023-12-04T09:40:15;16.83;;;11.40;;
5730;SDS011;2890;51.950;7.668;2023-12-04T09:42:42;14.37;;;10.90;;
5730;SDS011;2890;51.950;7.668;2023-12-04T09:45:08;15.67;;;11.20;;
5730;SDS011;2890;51.950;7.668;2023-12-04T09:47:35;16.67;;;11.60;;
5730;SDS011;2890;51.950;7.668;2023-12-04T09:50:03;17.80;;;11.40;;
5730;SDS011;2890;51.950;7.668;2023-12-04T09:52:30;15.60;;;11.40;;
5730;SDS011;2890;51.950;7.668;2023-12-04T09:54:57;17.27;;;11.87;;
5730;SDS011;2890;51.950;7.668;2023-12-04T09:57:23;15.60;;;11.50;;
5730;SDS011;2890;51.950;7.668;2023-12-04T09:59:50;15.50;;;11.40;;
5730;SDS011;2890;51.950;7.668;2023-12-04T10:02:17;13.87;;;10.40;;
5730;SDS011;2890;51.950;7.668;2023-12-04T10:04:43;12.20;;;9.80;;
5730;SDS011;2890;51.950;7.668;2023-12-04T10:07:11;15.03;;;10.33;;
5730;SDS011;2890;51.950;7.668;2023-12-04T10:09:37;13.93;;;10.67;;
5730;SDS011;2890;51.950;7.668;2023-12-04T10:12:04;14.10;;;9.73;;
5730;SDS011;2890;51.950;7.668;2023-12-04T10:14:31;15.30;;;10.07;;
5730;SDS011;2890;51.950;7.668;2023-12-04T10:16:58;16.37;;;10.07;;
5730;SDS011;2890;51.950;7.668;2023-12-04T10:19:24;13.83;;;10.70;;
5730;SDS011;2890;51.950;7.668;2023-12-04T10:21:51;15.23;;;11.20;;
5730;SDS011;2890;51.950;7.668;2023-12-04T10:24:29;11.13;;;9.47;;
5730;SDS011;2890;51.950;7.668;2023-12-04T10:26:55;13.83;;;9.83;;
5730;SDS011;2890;51.950;7.668;2023-12-04T10:29:23;12.60;;;9.90;;
5730;SDS011;2890;51.950;7.668;2023-12-04T10:31:49;12.43;;;10.07;;
5730;SDS011;2890;51.950;7.668;2023-12-04T10:34:17;15.90;;;10.80;;
5730;SDS011;2890;51.950;7.668;2023-12-04T10:36:44;14.10;;;10.20;;
5730;SDS011;2890;51.950;7.668;2023-12-04T10:39:10;15.00;;;10.70;;
5730;SDS011;2890;51.950;7.668;2023-12-04T10:41:39;11.17;;;9.30;;
5730;SDS011;2890;51.950;7.668;2023-12-04T10:44:18;12.70;;;10.13;;
5730;SDS011;2890;51.950;7.668;2023-12-04T10:46:44;11.50;;;9.30;;
5730;SDS011;2890;51.950;7.668;2023-12-04T10:49:12;16.37;;;10.70;;
5730;SDS011;2890;51.950;7.668;2023-12-04T10:51:39;15.13;;;10.60;;
5730;SDS011;2890;51.950;7.668;2023-12-04T10:54:05;12.63;;;10.20;;
5730;SDS011;2890;51.950;7.668;2023-12-04T10:56:33;9.77;;;8.53;;
5730;SDS011;2890;51.950;7.668;2023-12-04T10:59:02;11.87;;;8.97;;
5730;SDS011;2890;51.950;7.668;2023-12-04T11:01:29;10.63;;;9.53;;
5730;SDS011;2890;51.950;7.668;2023-12-04T11:03:58;9.27;;;8.37;;
5730;SDS011;2890;51.950;7.668;2023-12-04T11:06:25;9.60;;;8.60;;
5730;SDS011;2890;51.950;7.668;2023-12-04T11:08:52;12.10;;;8.77;;
5730;SDS011;2890;51.950;7.668;2023-12-04T11:11:23;9.60;;;8.17;;
5730;SDS011;2890;51.950;7.668;2023-12-04T11:13:52;9.10;;;8.17;;
5730;SDS011;2890;51.950;7.668;2023-12-04T11:16:23;7.83;;;7.03;;
5730;SDS011;2890;51.950;7.668;2023-12-04T11:18:53;9.00;;;7.37;;
5730;SDS011;2890;51.950;7.668;2023-12-04T11:21:21;9.20;;;7.33;;
5730;SDS011;2890;51.950;7.668;2023-12-04T11:23:47;8.40;;;7.33;;
5730;SDS011;2890;51.950;7.668;2023-12-04T11:26:13;9.07;;;7.10;;
5730;SDS011;2890;51.950;7.668;2023-12-04T11:28:41;8.23;;;7.30;;
5730;SDS011;2890;51.950;7.668;2023-12-04T11:31:08;7.83;;;6.90;;
5730;SDS011;2890;51.950;7.668;2023-12-04T11:33:36;9.87;;;7.90;;
5730;SDS011;2890;51.950;7.668;2023-12-04T11:36:07;8.90;;;8.00;;
5730;SDS011;2890;51.950;7.668;2023-12-04T11:38:34;7.90;;;7.10;;
5730;SDS011;2890;51.950;7.668;2023-12-04T11:41:01;12.50;;;6.83;;
5730;SDS011;2890;51.950;7.668;2023-12-04T11:43:37;8.77;;;7.50;;
5730;SDS011;2890;51.950;7.668;2023-12-04T11:46:08;9.50;;;7.50;;
5730;SDS011;2890;51.950;7.668;2023-12-04T11:48:37;7.87;;;6.50;;
5730;SDS011;2890;51.950;7.668;2023-12-04T11:51:04;8.33;;;7.20;;
5730;SDS011;2890;51.950;7.668;2023-12-04T11:53:31;12.30;;;7.50;;
5730;SDS011;2890;51.950;7.668;2023-12-04T11:55:58;8.60;;;7.53;;
5730;SDS011;2890;51.950;7.668;2023-12-04T11:58:24;8.47;;;7.50;;
5730;SDS011;2890;51.950;7.668;2023-12-04T12:00:52;8.67;;;7.50;;
5730;SDS011;2890;51.950;7.668;2023-12-04T12:03:20;8.17;;;7.00;;
5730;SDS011;2890;51.950;7.668;2023-12-04T12:05:48;8.40;;;7.53;;
5730;SDS011;2890;51.950;7.668;2023-12-04T12:08:15;8.20;;;7.47;;
5730;SDS011;2890;51.950;7.668;2023-12-04T12:10:42;8.93;;;8.13;;
5730;SDS011;2890;51.950;7.668;2023-12-04T12:13:08;11.27;;;8.00;;
5730;SDS011;2890;51.950;7.668;2023-12-04T12:15:36;8.73;;;7.10;;
5730;SDS011;2890;51.950;7.668;2023-12-04T12:18:02;13.30;;;7.20;;
5730;SDS011;2890;51.950;7.668;2023-12-04T12:20:29;8.40;;;7.60;;
5730;SDS011;2890;51.950;7.668;2023-12-04T12:22:57;8.50;;;7.37;;
5730;SDS011;2890;51.950;7.668;2023-12-04T12:25:23;8.57;;;7.70;;
5730;SDS011;2890;51.950;7.668;2023-12-04T12:27:51;7.97;;;7.03;;
5730;SDS011;2890;51.950;7.668;2023-12-04T12:30:17;8.43;;;7.57;;
5730;SDS011;2890;51.950;7.668;2023-12-04T12:32:44;8.60;;;7.70;;
5730;SDS011;2890;51.950;7.668;2023-12-04T12:35:10;9.20;;;7.20;;
5730;SDS011;2890;51.950;7.668;2023-12-04T12:37:38;9.60;;;8.13;;
5730;SDS011;2890;51.950;7.668;2023-12-04T12:40:06;7.50;;;6.80;;
5730;SDS011;2890;51.950;7.668;2023-12-04T12:42:34;8.43;;;7.73;;
5730;SDS011;2890;51.950;7.668;2023-12-04T12:45:01;10.20;;;7.37;;
5730;SDS011;2890;51.950;7.668;2023-12-04T12:47:28;7.50;;;6.80;;
5730;SDS011;2890;51.950;7.668;2023-12-04T12:49:55;8.63;;;7.27;;
5730;SDS011;2890;51.950;7.668;2023-12-04T12:52:21;8.53;;;6.77;;
5730;SDS011;2890;51.950;7.668;2023-12-04T12:54:47;8.03;;;6.97;;
5730;SDS011;2890;51.950;7.668;2023-12-04T12:57:15;7.40;;;6.80;;
5730;SDS011;2890;51.950;7.668;2023-12-04T12:59:41;7.80;;;7.00;;
5730;SDS011;2890;51.950;7.668;2023-12-04T13:02:08;7.97;;;7.17;;
5730;SDS011;2890;51.950;7.668;2023-12-04T13:04:35;7.50;;;6.80;;
5730;SDS011;2890;51.950;7.668;2023-12-04T13:07:01;8.13;;;7.33;;
5730;SDS011;2890;51.950;7.668;2023-12-04T13:09:28;8.47;;;7.60;;
5730;SDS011;2890;51.950;7.668;2023-12-04T13:11:54;8.23;;;7.37;;
5730;SDS011;2890;51.950;7.668;2023-12-04T13:14:22;9.77;;;7.77;;
5730;SDS011;2890;51.950;7.668;2023-12-04T13:16:49;9.93;;;8.90;;
5730;SDS011;2890;51.950;7.668;2023-12-04T13:19:16;8.73;;;7.80;;
5730;SDS011;2890;51.950;7.668;2023-12-04T13:21:42;7.87;;;6.70;;
5730;SDS011;2890;51.950;7.668;2023-12-04T13:24:09;8.57;;;7.60;;
5730;SDS011;2890;51.950;7.668;2023-12-04T13:26:37;9.07;;;8.17;;
5730;SDS011;2890;51.950;7.668;2023-12-04T13:29:03;8.63;;;7.73;;
5730;SDS011;2890;51.950;7.668;2023-12-04T13:31:33;7.90;;;7.10;;
5730;SDS011;2890;51.950;7.668;2023-12-04T13:34:00;8.90;;;8.00;;
5730;SDS011;2890;51.950;7.668;2023-12-04T13:36:28;8.37;;;7.57;;
5730;SDS011;2890;51.950;7.668;2023-12-04T13:38:54;9.40;;;8.47;;
5730;SDS011;2890;51.950;7.668;2023-12-04T13:41:20;10.00;;;7.50;;
5730;SDS011;2890;51.950;7.668;2023-12-04T13:44:01;9.53;;;8.10;;
5730;SDS011;2890;51.950;7.668;2023-12-04T13:46:28;9.90;;;8.53;;
5730;SDS011;2890;51.950;7.668;2023-12-04T13:48:58;9.73;;;8.63;;
5730;SDS011;2890;51.950;7.668;2023-12-04T13:51:25;10.97;;;9.10;;
5730;SDS011;2890;51.950;7.668;2023-12-04T13:53:51;10.10;;;8.80;;
5730;SDS011;2890;51.950;7.668;2023-12-04T13:56:21;9.20;;;8.03;;
5730;SDS011;2890;51.950;7.668;2023-12-04T13:59:06;9.87;;;8.87;;
5730;SDS011;2890;51.950;7.668;2023-12-04T14:01:32;10.00;;;8.30;;
5730;SDS011;2890;51.950;7.668;2023-12-04T14:04:01;15.00;;;9.20;;
5730;SDS011;2890;51.950;7.668;2023-12-04T14:06:27;9.77;;;8.80;;
5730;SDS011;2890;51.950;7.668;2023-12-04T14:08:54;13.33;;;9.87;;
5730;SDS011;2890;51.950;7.668;2023-12-04T14:11:20;12.70;;;9.20;;
5730;SDS011;2890;51.950;7.668;2023-12-04T14:13:46;10.23;;;8.70;;
5730;SDS011;2890;51.950;7.668;2023-12-04T14:16:13;12.37;;;9.60;;
5730;SDS011;2890;51.950;7.668;2023-12-04T14:18:41;11.50;;;9.13;;
5730;SDS011;2890;51.950;7.668;2023-12-04T14:21:08;10.13;;;8.50;;
5730;SDS011;2890;51.950;7.668;2023-12-04T14:23:35;11.13;;;9.13;;
5730;SDS011;2890;51.950;7.668;2023-12-04T14:26:02;14.17;;;10.50;;
5730;SDS011;2890;51.950;7.668;2023-12-04T14:28:28;10.77;;;9.13;;
5730;SDS011;2890;51.950;7.668;2023-12-04T14:30:54;11.00;;;9.63;;
5730;SDS011;2890;51.950;7.668;2023-12-04T14:33:21;12.67;;;9.23;;
5730;SDS011;2890;51.950;7.668;2023-12-04T14:35:47;11.30;;;8.80;;
5730;SDS011;2890;51.950;7.668;2023-12-04T14:38:15;11.00;;;9.80;;
5730;SDS011;2890;51.950;7.668;2023-12-04T14:40:41;12.43;;;8.77;;
5730;SDS011;2890;51.950;7.668;2023-12-04T14:43:07;15.13;;;9.90;;
5730;SDS011;2890;51.950;7.668;2023-12-04T14:45:35;9.93;;;8.93;;
5730;SDS011;2890;51.950;7.668;2023-12-04T14:48:21;12.17;;;9.07;;
5730;SDS011;2890;51.950;7.668;2023-12-04T14:50:55;11.10;;;9.33;;